createdAt,value
2022-12-11T00:00:06.874Z,59
2022-12-11T00:00:37.450Z,55
2022-12-11T00:01:08.810Z,64
2022-12-11T00:01:40.236Z,54
2022-12-11T00:02:11.057Z,56
2022-12-11T00:02:41.927Z,61
2022-12-11T00:03:15.880Z,61
2022-12-11T00:03:43.174Z,69
2022-12-11T00:04:14.525Z,68
2022-12-11T00:04:45.682Z,66
2022-12-11T00:05:16.684Z,66
2022-12-11T00:05:46.959Z,66
2022-12-11T00:06:19.415Z,65
2022-12-11T00:06:50.082Z,62
2022-12-11T00:07:52.167Z,62
2022-12-11T00:08:22.326Z,58
2022-12-11T00:08:53.099Z,58
2022-12-11T00:09:24.920Z,66
2022-12-11T00:09:56.132Z,63
2022-12-11T00:10:26.385Z,63
2022-12-11T00:10:56.947Z,61
2022-12-11T00:11:28.477Z,64
2022-12-11T00:12:00.597Z,61
2022-12-11T00:12:31.862Z,59
2022-12-11T00:13:19.017Z,59
2022-12-11T00:13:32.294Z,59
2022-12-11T00:14:03.234Z,59
2022-12-11T00:14:34.675Z,59
2022-12-11T00:15:06.541Z,61
2022-12-11T00:15:36.707Z,58
2022-12-11T00:16:38.305Z,60
2022-12-11T00:17:10.155Z,60
2022-12-11T00:17:41.248Z,58
2022-12-11T00:18:11.565Z,57
2022-12-11T00:18:42.473Z,60
2022-12-11T00:19:13.198Z,59
2022-12-11T00:19:45.029Z,59
2022-12-11T00:20:15.499Z,59
2022-12-11T00:20:59.765Z,60
2022-12-11T00:21:48.756Z,59
2022-12-11T00:22:19.124Z,62
2022-12-11T00:22:51.418Z,62
2022-12-11T00:23:22.125Z,62
2022-12-11T00:23:52.194Z,62
2022-12-11T00:24:23.291Z,62
2022-12-11T00:24:54.587Z,62
2022-12-11T00:25:25.799Z,62
2022-12-11T00:25:56.325Z,62
2022-12-11T00:26:27.229Z,62
2022-12-11T00:26:58.319Z,66
2022-12-11T00:27:30.686Z,66
2022-12-11T00:28:02.008Z,61
2022-12-11T00:28:31.612Z,59
2022-12-11T00:29:02.566Z,61
2022-12-11T00:29:33.676Z,57
2022-12-11T00:30:04.909Z,57
2022-12-11T00:30:35.460Z,58
2022-12-11T00:31:06.460Z,58
2022-12-11T00:31:38.057Z,58
2022-12-11T00:32:08.951Z,58
2022-12-11T00:32:40.864Z,58
2022-12-11T00:33:12.135Z,58
2022-12-11T00:33:41.966Z,58
2022-12-11T00:34:43.388Z,58
2022-12-11T00:35:14.840Z,59
2022-12-11T00:35:46.020Z,56
2022-12-11T00:36:17.283Z,56
2022-12-11T00:36:47.516Z,59
2022-12-11T00:37:18.546Z,58
2022-12-11T00:37:50.503Z,58
2022-12-11T00:38:21.996Z,58
2022-12-11T00:38:52.292Z,58
2022-12-11T00:39:22.829Z,64
2022-12-11T00:40:11.958Z,63
2022-12-11T00:40:24.605Z,63
2022-12-11T00:40:55.768Z,63
2022-12-11T00:41:57.665Z,62
2022-12-11T00:42:29.266Z,62
2022-12-11T00:42:59.287Z,62
2022-12-11T00:43:31.335Z,62
2022-12-11T00:44:02.839Z,62
2022-12-11T00:44:32.655Z,62
2022-12-11T00:45:04.801Z,61
2022-12-11T00:45:35.216Z,60
2022-12-11T00:46:05.610Z,60
2022-12-11T00:46:36.272Z,58
2022-12-11T00:47:07.532Z,58
2022-12-11T00:47:38.440Z,59
2022-12-11T00:48:11.083Z,58
2022-12-11T00:48:57.611Z,58
2022-12-11T00:49:12.663Z,58
2022-12-11T00:49:48.070Z,58
2022-12-11T00:50:13.761Z,58
2022-12-11T00:50:44.911Z,58
2022-12-11T00:51:15.927Z,61
2022-12-11T00:51:47.053Z,61
2022-12-11T00:52:17.512Z,57
2022-12-11T00:52:48.918Z,60
2022-12-11T00:53:20.072Z,63
2022-12-11T00:53:50.956Z,63
2022-12-11T00:54:22.012Z,63
2022-12-11T00:54:53.124Z,67
2022-12-11T00:55:23.678Z,65
2022-12-11T00:55:54.906Z,64
2022-12-11T00:56:26.095Z,65
2022-12-11T00:56:56.546Z,65
2022-12-11T00:57:27.802Z,65
2022-12-11T00:57:58.419Z,65
2022-12-11T00:58:30.132Z,65
2022-12-11T00:59:01.978Z,70
2022-12-11T00:59:33.119Z,67
2022-12-11T01:01:01.628Z,67
2022-12-11T01:01:04.831Z,66
2022-12-11T01:01:35.959Z,66
2022-12-11T01:02:08.272Z,66
2022-12-11T01:02:37.539Z,65
2022-12-11T01:03:08.502Z,65
2022-12-11T01:03:39.642Z,65
2022-12-11T01:04:11.197Z,65
2022-12-11T01:04:42.149Z,65
2022-12-11T01:05:13.146Z,65
2022-12-11T01:05:43.481Z,65
2022-12-11T01:06:14.645Z,67
2022-12-11T01:07:03.040Z,66
2022-12-11T01:07:17.836Z,69
2022-12-11T01:07:49.272Z,67
2022-12-11T01:09:28.657Z,67
2022-12-11T01:10:39.108Z,66
2022-12-11T01:10:55.379Z,63
2022-12-11T01:11:25.401Z,75
2022-12-11T01:12:21.833Z,58
2022-12-11T01:12:27.851Z,54
2022-12-11T01:12:58.814Z,55
2022-12-11T01:13:29.947Z,63
2022-12-11T01:14:00.322Z,58
2022-12-11T01:14:31.447Z,58
2022-12-11T01:15:08.039Z,59
2022-12-11T01:15:39.965Z,57
2022-12-11T01:16:07.450Z,58
2022-12-11T01:16:43.432Z,56
2022-12-11T01:17:06.476Z,56
2022-12-11T01:17:36.904Z,53
2022-12-11T01:18:08.458Z,57
2022-12-11T01:18:39.347Z,58
2022-12-11T01:19:09.859Z,55
2022-12-11T01:19:41.192Z,58
2022-12-11T01:20:12.103Z,62
2022-12-11T01:21:23.427Z,61
2022-12-11T01:21:48.026Z,59
2022-12-11T01:22:16.363Z,59
2022-12-11T01:22:47.225Z,53
2022-12-11T01:23:18.872Z,69
2022-12-11T01:23:48.801Z,53
2022-12-11T01:24:20.101Z,56
2022-12-11T01:24:51.351Z,52
2022-12-11T01:25:21.807Z,54
2022-12-11T01:25:53.278Z,62
2022-12-11T01:26:25.249Z,69
2022-12-11T01:26:55.674Z,54
2022-12-11T01:27:27.468Z,67
2022-12-11T01:27:57.237Z,59
2022-12-11T01:28:28.557Z,61
2022-12-11T01:28:59.252Z,59
2022-12-11T01:29:30.024Z,59
2022-12-11T01:30:03.052Z,59
2022-12-11T01:30:34.774Z,61
2022-12-11T01:31:12.507Z,57
2022-12-11T01:31:34.061Z,57
2022-12-11T01:32:05.605Z,57
2022-12-11T01:32:37.266Z,60
2022-12-11T01:33:07.300Z,60
2022-12-11T01:33:44.018Z,60
2022-12-11T01:34:10.206Z,61
2022-12-11T01:34:43.436Z,59
2022-12-11T01:35:16.168Z,60
2022-12-11T01:35:45.318Z,55
2022-12-11T01:36:12.768Z,57
2022-12-11T01:38:21.507Z,60
2022-12-11T01:38:49.104Z,59
2022-12-11T01:39:20.561Z,63
2022-12-11T01:39:50.848Z,49
2022-12-11T01:40:22.161Z,56
2022-12-11T01:40:52.484Z,56
2022-12-11T01:41:23.618Z,57
2022-12-11T01:41:56.537Z,58
2022-12-11T01:42:25.408Z,57
2022-12-11T01:42:56.456Z,45
2022-12-11T01:43:27.795Z,46
2022-12-11T01:43:58.774Z,46
2022-12-11T01:44:29.564Z,51
2022-12-11T01:45:02.266Z,51
2022-12-11T01:45:31.463Z,51
2022-12-11T01:46:02.652Z,53
2022-12-11T01:46:33.470Z,53
2022-12-11T01:47:05.522Z,53
2022-12-11T01:47:35.193Z,54
2022-12-11T01:48:07.135Z,54
2022-12-11T01:48:42.196Z,54
2022-12-11T01:49:10.259Z,51
2022-12-11T01:49:39.930Z,62
2022-12-11T01:50:10.814Z,59
2022-12-11T01:50:41.761Z,59
2022-12-11T01:51:16.480Z,63
2022-12-11T01:51:43.364Z,63
2022-12-11T01:52:14.926Z,63
2022-12-11T01:52:45.105Z,59
2022-12-11T01:53:17.096Z,59
2022-12-11T01:53:48.353Z,60
2022-12-11T01:54:19.058Z,55
2022-12-11T01:55:12.359Z,58
2022-12-11T01:55:38.784Z,58
2022-12-11T01:55:51.490Z,58
2022-12-11T01:56:22.672Z,60
2022-12-11T01:56:53.085Z,58
2022-12-11T01:57:24.388Z,59
2022-12-11T01:57:55.173Z,59
2022-12-11T01:58:26.767Z,58
2022-12-11T01:58:58.148Z,65
2022-12-11T01:59:29.181Z,71
2022-12-11T01:59:59.296Z,65
2022-12-11T02:00:32.812Z,56
2022-12-11T02:01:04.880Z,52
2022-12-11T02:01:37.565Z,58
2022-12-11T02:02:08.945Z,58
2022-12-11T02:02:34.097Z,58
2022-12-11T02:03:05.284Z,57
2022-12-11T02:03:36.963Z,57
2022-12-11T02:04:24.825Z,53
2022-12-11T02:04:39.269Z,53
2022-12-11T02:05:10.036Z,55
2022-12-11T02:05:40.241Z,56
2022-12-11T02:06:11.074Z,56
2022-12-11T02:06:43.132Z,57
2022-12-11T02:07:13.462Z,61
2022-12-11T02:07:44.314Z,60
2022-12-11T02:08:15.427Z,60
2022-12-11T02:08:46.156Z,60
2022-12-11T02:09:17.096Z,60
2022-12-11T02:09:49.188Z,60
2022-12-11T02:10:19.704Z,60
2022-12-11T02:10:50.269Z,60
2022-12-11T02:11:21.673Z,60
2022-12-11T02:11:53.611Z,60
2022-12-11T02:12:23.521Z,60
2022-12-11T02:12:54.610Z,61
2022-12-11T02:13:25.565Z,61
2022-12-11T02:13:56.433Z,61
2022-12-11T02:14:28.389Z,61
2022-12-11T02:14:59.047Z,61
2022-12-11T02:15:29.671Z,61
2022-12-11T02:16:00.782Z,61
2022-12-11T02:16:31.514Z,61
2022-12-11T02:17:02.470Z,61
2022-12-11T02:17:34.197Z,61
2022-12-11T02:18:05.010Z,61
2022-12-11T02:18:37.722Z,61
2022-12-11T02:19:06.857Z,61
2022-12-11T02:19:38.961Z,60
2022-12-11T02:20:09.453Z,61
2022-12-11T02:20:42.112Z,60
2022-12-11T02:21:10.214Z,62
2022-12-11T02:22:00.535Z,60
2022-12-11T02:22:12.362Z,61
2022-12-11T02:22:43.242Z,62
2022-12-11T02:23:14.942Z,62
2022-12-11T02:23:45.304Z,61
2022-12-11T02:24:47.298Z,61
2022-12-11T02:25:18.764Z,61
2022-12-11T02:25:49.453Z,61
2022-12-11T02:26:20.535Z,61
2022-12-11T02:26:51.328Z,61
2022-12-11T02:27:22.292Z,61
2022-12-11T02:27:54.265Z,61
2022-12-11T02:28:26.333Z,61
2022-12-11T02:28:57.728Z,61
2022-12-11T02:29:27.811Z,61
2022-12-11T02:29:58.072Z,61
2022-12-11T02:30:31.547Z,61
2022-12-11T02:30:59.442Z,55
2022-12-11T02:31:31.239Z,55
2022-12-11T02:32:03.363Z,55
2022-12-11T02:32:32.485Z,52
2022-12-11T02:33:04.078Z,53
2022-12-11T02:33:34.449Z,53
2022-12-11T02:34:05.256Z,53
2022-12-11T02:34:35.868Z,54
2022-12-11T02:35:08.828Z,56
2022-12-11T02:35:39.371Z,56
2022-12-11T02:36:09.731Z,56
2022-12-11T02:36:40.031Z,56
2022-12-11T02:37:11.504Z,56
2022-12-11T02:37:42.022Z,56
2022-12-11T02:38:12.979Z,56
2022-12-11T02:38:43.976Z,56
2022-12-11T02:39:14.915Z,56
2022-12-11T02:39:46.599Z,56
2022-12-11T02:40:19.249Z,56
2022-12-11T02:40:49.363Z,56
2022-12-11T02:41:19.511Z,56
2022-12-11T02:41:50.502Z,56
2022-12-11T02:42:22.119Z,56
2022-12-11T02:42:52.434Z,56
2022-12-11T02:43:22.914Z,57
2022-12-11T02:43:54.097Z,56
2022-12-11T02:44:25.085Z,56
2022-12-11T02:44:55.984Z,56
2022-12-11T02:45:28.349Z,56
2022-12-11T02:45:59.384Z,56
2022-12-11T02:46:29.326Z,56
2022-12-11T02:47:01.464Z,56
2022-12-11T02:47:31.723Z,56
2022-12-11T02:48:02.474Z,56
2022-12-11T02:48:33.377Z,56
2022-12-11T02:49:04.196Z,56
2022-12-11T02:49:35.364Z,56
2022-12-11T02:50:08.209Z,56
2022-12-11T02:50:38.165Z,56
2022-12-11T02:51:09.606Z,56
2022-12-11T02:51:39.263Z,56
2022-12-11T02:52:10.353Z,56
2022-12-11T02:52:41.683Z,56
2022-12-11T02:53:12.424Z,56
2022-12-11T02:53:43.192Z,56
2022-12-11T02:54:13.970Z,56
2022-12-11T02:54:44.652Z,56
2022-12-11T02:55:16.157Z,56
2022-12-11T02:55:47.589Z,56
2022-12-11T02:56:18.670Z,56
2022-12-11T02:56:49.719Z,56
2022-12-11T02:57:21.036Z,56
2022-12-11T02:57:52.194Z,56
2022-12-11T02:58:22.640Z,56
2022-12-11T02:58:58.317Z,56
2022-12-11T02:59:24.196Z,56
2022-12-11T02:59:55.073Z,56
2022-12-11T03:00:26.961Z,56
2022-12-11T03:00:57.900Z,56
2022-12-11T03:01:29.454Z,56
2022-12-11T03:02:30.530Z,56
2022-12-11T03:03:18.840Z,56
2022-12-11T03:03:32.233Z,56
2022-12-11T03:04:03.200Z,56
2022-12-11T03:05:05.296Z,56
2022-12-11T03:05:36.027Z,56
2022-12-11T03:06:08.112Z,56
2022-12-11T03:06:38.996Z,55
2022-12-11T03:07:10.799Z,55
2022-12-11T03:07:41.072Z,55
2022-12-11T03:08:11.809Z,55
2022-12-11T03:08:42.263Z,55
2022-12-11T03:09:13.308Z,55
2022-12-11T03:09:44.630Z,55
2022-12-11T03:10:15.935Z,55
2022-12-11T03:10:46.076Z,55
2022-12-11T03:11:17.880Z,55
2022-12-11T03:11:49.229Z,55
2022-12-11T03:12:36.804Z,55
2022-12-11T03:12:53.657Z,55
2022-12-11T03:13:21.374Z,55
2022-12-11T03:13:52.200Z,55
2022-12-11T03:14:23.286Z,55
2022-12-11T03:14:54.191Z,55
2022-12-11T03:15:25.771Z,55
2022-12-11T03:15:56.284Z,55
2022-12-11T03:16:27.424Z,55
2022-12-11T03:16:59.383Z,55
2022-12-11T03:17:29.321Z,55
2022-12-11T03:18:00.546Z,55
2022-12-11T03:18:31.600Z,55
2022-12-11T03:19:02.148Z,55
2022-12-11T03:19:32.984Z,55
2022-12-11T03:20:04.546Z,55
2022-12-11T03:20:35.280Z,55
2022-12-11T03:21:23.279Z,55
2022-12-11T03:21:37.530Z,55
2022-12-11T03:22:10.334Z,55
2022-12-11T03:22:58.241Z,55
2022-12-11T03:23:10.632Z,55
2022-12-11T03:23:41.550Z,55
2022-12-11T03:24:12.571Z,55
2022-12-11T03:24:42.849Z,55
2022-12-11T03:25:14.896Z,55
2022-12-11T03:25:45.182Z,55
2022-12-11T03:26:15.910Z,56
2022-12-11T03:26:47.701Z,55
2022-12-11T03:27:18.581Z,55
2022-12-11T03:27:50.615Z,55
2022-12-11T03:28:20.183Z,55
2022-12-11T03:28:51.271Z,55
2022-12-11T03:29:22.553Z,55
2022-12-11T03:29:53.067Z,55
2022-12-11T03:30:25.259Z,55
2022-12-11T03:30:55.514Z,55
2022-12-11T03:31:26.073Z,55
2022-12-11T03:31:58.227Z,55
2022-12-11T03:32:29.444Z,55
2022-12-11T03:33:00.756Z,55
2022-12-11T03:34:01.801Z,55
2022-12-11T03:34:28.403Z,55
2022-12-11T03:35:01.173Z,55
2022-12-11T03:35:32.262Z,55
2022-12-11T03:36:02.690Z,55
2022-12-11T03:36:33.457Z,55
2022-12-11T03:37:04.956Z,55
2022-12-11T03:37:35.517Z,55
2022-12-11T03:38:06.601Z,55
2022-12-11T03:38:37.769Z,55
2022-12-11T03:39:09.223Z,55
2022-12-11T03:39:40.591Z,55
2022-12-11T03:40:12.360Z,55
2022-12-11T03:40:42.083Z,55
2022-12-11T03:41:43.379Z,55
2022-12-11T03:42:15.271Z,55
2022-12-11T03:42:45.598Z,55
2022-12-11T03:43:16.504Z,55
2022-12-11T03:43:48.554Z,55
2022-12-11T03:44:19.223Z,55
2022-12-11T03:44:50.707Z,55
2022-12-11T03:45:20.817Z,55
2022-12-11T03:45:52.817Z,55
2022-12-11T03:46:22.722Z,55
2022-12-11T03:46:53.577Z,55
2022-12-11T03:47:24.793Z,55
2022-12-11T03:47:55.869Z,55
2022-12-11T03:48:26.674Z,55
2022-12-11T03:48:58.342Z,55
2022-12-11T03:49:29.209Z,55
2022-12-11T03:50:00.388Z,55
2022-12-11T03:50:30.946Z,55
2022-12-11T03:51:02.519Z,55
2022-12-11T03:51:33.021Z,55
2022-12-11T03:52:04.181Z,55
2022-12-11T03:52:34.920Z,55
2022-12-11T03:53:05.731Z,55
2022-12-11T03:53:36.589Z,55
2022-12-11T03:54:08.704Z,55
2022-12-11T03:54:39.251Z,55
2022-12-11T03:55:11.487Z,55
2022-12-11T03:55:41.770Z,55
2022-12-11T03:56:12.412Z,56
2022-12-11T03:56:42.709Z,55
2022-12-11T03:57:14.746Z,55
2022-12-11T03:57:44.702Z,56
2022-12-11T03:58:16.038Z,55
2022-12-11T03:58:46.898Z,55
2022-12-11T03:59:18.921Z,56
2022-12-11T03:59:49.261Z,55
2022-12-11T04:00:21.252Z,56
2022-12-11T04:00:51.171Z,56
2022-12-11T04:01:22.092Z,56
2022-12-11T04:01:53.489Z,56
2022-12-11T04:02:24.097Z,56
2022-12-11T04:02:54.600Z,56
2022-12-11T04:03:25.858Z,56
2022-12-11T04:03:57.238Z,56
2022-12-11T04:04:27.812Z,56
2022-12-11T04:04:59.646Z,56
2022-12-11T04:05:30.566Z,56
2022-12-11T04:06:00.956Z,56
2022-12-11T04:06:32.056Z,56
2022-12-11T04:07:33.562Z,56
2022-12-11T04:08:04.800Z,56
2022-12-11T04:08:35.816Z,56
2022-12-11T04:09:06.504Z,56
2022-12-11T04:09:37.518Z,56
2022-12-11T04:10:11.039Z,56
2022-12-11T04:10:40.452Z,56
2022-12-11T04:11:11.736Z,56
2022-12-11T04:12:00.377Z,56
2022-12-11T04:12:13.093Z,56
2022-12-11T04:12:43.631Z,56
2022-12-11T04:13:14.596Z,56
2022-12-11T04:13:45.495Z,56
2022-12-11T04:14:16.443Z,56
2022-12-11T04:14:47.437Z,56
2022-12-11T04:15:20.113Z,56
2022-12-11T04:15:50.305Z,56
2022-12-11T04:16:20.952Z,56
2022-12-11T04:16:51.580Z,56
2022-12-11T04:17:23.435Z,56
2022-12-11T04:17:54.320Z,56
2022-12-11T04:18:24.617Z,56
2022-12-11T04:18:55.638Z,56
2022-12-11T04:19:26.291Z,56
2022-12-11T04:19:57.844Z,56
2022-12-11T04:20:29.603Z,56
2022-12-11T04:21:00.198Z,56
2022-12-11T04:21:48.465Z,56
2022-12-11T04:22:02.205Z,56
2022-12-11T04:22:33.665Z,56
2022-12-11T04:23:04.124Z,56
2022-12-11T04:24:06.195Z,56
2022-12-11T04:24:36.516Z,56
2022-12-11T04:25:08.025Z,56
2022-12-11T04:25:39.125Z,56
2022-12-11T04:26:10.785Z,56
2022-12-11T04:26:41.561Z,56
2022-12-11T04:27:12.336Z,56
2022-12-11T04:27:42.879Z,56
2022-12-11T04:28:13.604Z,56
2022-12-11T04:28:44.530Z,56
2022-12-11T04:29:15.519Z,56
2022-12-11T04:29:46.653Z,56
2022-12-11T04:30:35.387Z,56
2022-12-11T04:30:49.619Z,56
2022-12-11T04:31:21.198Z,56
2022-12-11T04:32:01.697Z,56
2022-12-11T04:32:22.536Z,56
2022-12-11T04:32:53.329Z,56
2022-12-11T04:33:24.206Z,56
2022-12-11T04:33:54.549Z,56
2022-12-11T04:34:25.767Z,56
2022-12-11T04:34:56.659Z,56
2022-12-11T04:35:27.707Z,56
2022-12-11T04:35:59.973Z,56
2022-12-11T04:36:29.484Z,56
2022-12-11T04:37:01.622Z,56
2022-12-11T04:37:31.795Z,56
2022-12-11T04:38:35.443Z,56
2022-12-11T04:39:04.722Z,56
2022-12-11T04:39:35.952Z,56
2022-12-11T04:40:07.648Z,56
2022-12-11T04:40:37.627Z,56
2022-12-11T04:41:09.184Z,56
2022-12-11T04:41:40.845Z,56
2022-12-11T04:42:11.283Z,56
2022-12-11T04:42:42.364Z,56
2022-12-11T04:43:13.026Z,56
2022-12-11T04:43:43.977Z,56
2022-12-11T04:44:14.595Z,56
2022-12-11T04:44:45.649Z,56
2022-12-11T04:45:17.044Z,56
2022-12-11T04:45:47.725Z,56
2022-12-11T04:46:19.489Z,56
2022-12-11T04:46:51.111Z,56
2022-12-11T04:47:21.336Z,56
2022-12-11T04:47:52.103Z,56
2022-12-11T04:48:41.016Z,56
2022-12-11T04:48:56.994Z,56
2022-12-11T04:49:24.454Z,56
2022-12-11T04:49:55.600Z,56
2022-12-11T04:50:26.553Z,56
2022-12-11T04:50:57.750Z,56
2022-12-11T04:51:29.254Z,56
2022-12-11T04:52:01.263Z,56
2022-12-11T04:52:31.333Z,56
2022-12-11T04:53:02.397Z,56
2022-12-11T04:53:33.168Z,56
2022-12-11T04:54:04.381Z,56
2022-12-11T04:54:34.739Z,56
2022-12-11T04:55:05.995Z,56
2022-12-11T04:55:36.857Z,56
2022-12-11T04:56:07.768Z,56
2022-12-11T04:56:39.115Z,56
2022-12-11T04:57:11.162Z,56
2022-12-11T04:57:41.556Z,56
2022-12-11T04:58:13.349Z,56
2022-12-11T04:58:43.163Z,56
2022-12-11T04:59:13.614Z,56
2022-12-11T04:59:44.453Z,56
2022-12-11T05:00:17.311Z,56
2022-12-11T05:00:46.898Z,56
2022-12-11T05:01:18.969Z,56
2022-12-11T05:01:49.801Z,56
2022-12-11T05:02:22.020Z,56
2022-12-11T05:02:51.959Z,56
2022-12-11T05:03:21.742Z,56
2022-12-11T05:03:52.818Z,56
2022-12-11T05:04:24.076Z,56
2022-12-11T05:04:54.633Z,56
2022-12-11T05:05:26.053Z,56
2022-12-11T05:05:56.684Z,56
2022-12-11T05:06:28.172Z,56
2022-12-11T05:07:00.004Z,56
2022-12-11T05:07:31.442Z,56
2022-12-11T05:08:01.565Z,56
2022-12-11T05:08:32.466Z,56
2022-12-11T05:09:03.132Z,56
2022-12-11T05:09:33.687Z,56
2022-12-11T05:10:05.685Z,56
2022-12-11T05:10:36.627Z,56
2022-12-11T05:11:07.144Z,56
2022-12-11T05:11:37.936Z,56
2022-12-11T05:12:09.381Z,56
2022-12-11T05:12:41.011Z,56
2022-12-11T05:13:10.991Z,56
2022-12-11T05:13:42.585Z,56
2022-12-11T05:14:13.133Z,56
2022-12-11T05:14:44.275Z,56
2022-12-11T05:15:32.855Z,56
2022-12-11T05:15:45.877Z,56
2022-12-11T05:16:17.770Z,56
2022-12-11T05:16:47.751Z,56
2022-12-11T05:17:19.513Z,56
2022-12-11T05:17:50.250Z,56
2022-12-11T05:18:21.089Z,56
2022-12-11T05:18:52.200Z,56
2022-12-11T05:19:23.265Z,56
2022-12-11T05:20:13.410Z,56
2022-12-11T05:20:56.049Z,56
2022-12-11T05:21:33.207Z,56
2022-12-11T05:21:58.692Z,56
2022-12-11T05:22:29.496Z,56
2022-12-11T05:23:00.211Z,56
2022-12-11T05:23:31.302Z,56
2022-12-11T05:24:02.432Z,56
2022-12-11T05:24:33.133Z,56
2022-12-11T05:25:04.599Z,56
2022-12-11T05:25:35.911Z,56
2022-12-11T05:26:06.326Z,56
2022-12-11T05:26:38.774Z,56
2022-12-11T05:27:08.536Z,56
2022-12-11T05:27:39.805Z,56
2022-12-11T05:28:10.014Z,56
2022-12-11T05:28:40.969Z,56
2022-12-11T05:29:12.190Z,56
2022-12-11T05:29:43.169Z,56
2022-12-11T05:30:15.659Z,56
2022-12-11T05:30:44.863Z,56
2022-12-11T05:31:16.055Z,56
2022-12-11T05:31:48.497Z,56
2022-12-11T05:32:19.268Z,56
2022-12-11T05:32:50.006Z,56
2022-12-11T05:33:38.209Z,56
2022-12-11T05:33:51.485Z,56
2022-12-11T05:34:23.256Z,56
2022-12-11T05:34:54.154Z,56
2022-12-11T05:35:24.107Z,56
2022-12-11T05:35:55.106Z,56
2022-12-11T05:36:25.838Z,56
2022-12-11T05:36:56.613Z,56
2022-12-11T05:37:28.476Z,56
2022-12-11T05:38:00.089Z,56
2022-12-11T05:38:30.115Z,56
2022-12-11T05:39:02.346Z,56
2022-12-11T05:39:32.924Z,56
2022-12-11T05:40:03.856Z,56
2022-12-11T05:40:34.163Z,56
2022-12-11T05:41:05.396Z,56
2022-12-11T05:41:36.661Z,56
2022-12-11T05:42:28.593Z,56
2022-12-11T05:42:55.221Z,56
2022-12-11T05:43:10.541Z,56
2022-12-11T05:43:40.194Z,56
2022-12-11T05:44:11.146Z,56
2022-12-11T05:44:41.978Z,56
2022-12-11T05:45:13.840Z,56
2022-12-11T05:45:44.460Z,56
2022-12-11T05:46:15.311Z,56
2022-12-11T05:46:45.851Z,56
2022-12-11T05:47:17.976Z,56
2022-12-11T05:47:48.868Z,56
2022-12-11T05:48:19.551Z,56
2022-12-11T05:48:50.793Z,56
2022-12-11T05:49:26.038Z,56
2022-12-11T05:49:52.665Z,56
2022-12-11T05:50:23.468Z,56
2022-12-11T05:50:54.487Z,56
2022-12-11T05:51:25.342Z,56
2022-12-11T05:51:55.991Z,56
2022-12-11T05:52:27.669Z,56
2022-12-11T05:52:58.727Z,56
2022-12-11T05:53:30.106Z,56
2022-12-11T05:54:00.566Z,56
2022-12-11T05:55:02.807Z,56
2022-12-11T05:55:33.371Z,56
2022-12-11T05:56:04.381Z,56
2022-12-11T05:56:35.641Z,56
2022-12-11T05:57:09.482Z,56
2022-12-11T05:57:37.013Z,56
2022-12-11T05:58:09.157Z,56
2022-12-11T05:58:39.689Z,56
2022-12-11T05:59:10.010Z,56
2022-12-11T05:59:41.102Z,56
2022-12-11T06:00:35.690Z,56
2022-12-11T06:00:43.818Z,56
2022-12-11T06:01:21.065Z,56
2022-12-11T06:01:45.282Z,56
2022-12-11T06:02:16.160Z,55
2022-12-11T06:02:49.679Z,56
2022-12-11T06:03:19.021Z,56
2022-12-11T06:03:49.373Z,56
2022-12-11T06:04:20.222Z,56
2022-12-11T06:04:51.470Z,55
2022-12-11T06:05:21.762Z,55
2022-12-11T06:05:53.549Z,41
2022-12-11T06:06:34.248Z,47
2022-12-11T06:06:55.323Z,49
2022-12-11T06:07:26.350Z,49
2022-12-11T06:07:57.749Z,50
2022-12-11T06:08:28.891Z,50
2022-12-11T06:09:17.276Z,50
2022-12-11T06:09:30.860Z,50
2022-12-11T06:10:01.648Z,50
2022-12-11T06:10:32.247Z,62
2022-12-11T06:11:03.645Z,69
2022-12-11T06:11:34.950Z,69
2022-12-11T06:12:04.902Z,66
2022-12-11T06:12:52.145Z,65
2022-12-11T06:13:07.655Z,65
2022-12-11T06:13:38.919Z,65
2022-12-11T06:14:09.386Z,64
2022-12-11T06:14:40.255Z,64
2022-12-11T06:15:12.290Z,64
2022-12-11T06:15:42.271Z,64
2022-12-11T06:16:13.827Z,64
2022-12-11T06:16:44.369Z,64
2022-12-11T06:17:15.283Z,64
2022-12-11T06:17:46.173Z,64
2022-12-11T06:18:17.741Z,64
2022-12-11T06:18:48.497Z,64
2022-12-11T06:19:19.977Z,64
2022-12-11T06:19:50.827Z,63
2022-12-11T06:20:22.235Z,64
2022-12-11T06:20:52.064Z,63
2022-12-11T06:21:23.588Z,63
2022-12-11T06:21:54.474Z,63
2022-12-11T06:22:48.901Z,63
2022-12-11T06:22:56.219Z,63
2022-12-11T06:23:27.065Z,63
2022-12-11T06:23:59.159Z,63
2022-12-11T06:24:29.879Z,63
2022-12-11T06:25:01.064Z,63
2022-12-11T06:25:31.104Z,63
2022-12-11T06:26:02.131Z,63
2022-12-11T06:26:33.751Z,63
2022-12-11T06:27:23.454Z,63
2022-12-11T06:27:35.221Z,63
2022-12-11T06:28:05.905Z,63
2022-12-11T06:28:39.014Z,63
2022-12-11T06:29:12.640Z,63
2022-12-11T06:29:41.235Z,63
2022-12-11T06:30:12.441Z,63
2022-12-11T06:30:41.915Z,63
2022-12-11T06:31:12.511Z,63
2022-12-11T06:31:43.728Z,63
2022-12-11T06:32:14.052Z,64
2022-12-11T06:32:46.040Z,64
2022-12-11T06:33:16.500Z,64
2022-12-11T06:33:47.520Z,63
2022-12-11T06:34:19.461Z,63
2022-12-11T06:34:49.610Z,63
2022-12-11T06:35:21.124Z,63
2022-12-11T06:36:09.378Z,63
2022-12-11T06:36:24.293Z,63
2022-12-11T06:36:53.521Z,63
2022-12-11T06:37:24.601Z,63
2022-12-11T06:37:55.281Z,64
2022-12-11T06:38:26.979Z,64
2022-12-11T06:38:57.402Z,64
2022-12-11T06:39:28.950Z,64
2022-12-11T06:40:00.395Z,64
2022-12-11T06:40:30.694Z,64
2022-12-11T06:41:01.497Z,64
2022-12-11T06:41:32.101Z,64
2022-12-11T06:42:03.745Z,64
2022-12-11T06:42:34.349Z,64
2022-12-11T06:43:05.602Z,64
2022-12-11T06:43:36.333Z,64
2022-12-11T06:44:07.312Z,64
2022-12-11T06:44:38.878Z,64
2022-12-11T06:45:10.944Z,64
2022-12-11T06:45:40.882Z,67
2022-12-11T06:46:11.683Z,66
2022-12-11T06:46:42.855Z,65
2022-12-11T06:47:13.585Z,66
2022-12-11T06:47:44.413Z,68
2022-12-11T06:48:15.265Z,74
2022-12-11T06:48:46.721Z,67
2022-12-11T06:49:50.055Z,113
2022-12-11T06:50:20.989Z,72
2022-12-11T06:50:52.111Z,74
2022-12-11T06:51:21.926Z,68
2022-12-11T06:51:53.709Z,67
2022-12-11T06:52:23.864Z,67
2022-12-11T06:52:55.157Z,65
2022-12-11T06:53:25.425Z,71
2022-12-11T06:53:56.634Z,82
2022-12-11T06:54:27.076Z,65
2022-12-11T06:54:59.734Z,63
2022-12-11T06:55:30.952Z,66
2022-12-11T06:56:01.452Z,64
2022-12-11T06:56:31.616Z,61
2022-12-11T06:57:03.001Z,73
2022-12-11T06:57:33.982Z,58
2022-12-11T06:58:04.557Z,61
2022-12-11T06:58:35.181Z,63
2022-12-11T06:59:07.668Z,60
2022-12-11T06:59:37.404Z,60
2022-12-11T07:00:10.387Z,63
2022-12-11T07:01:11.673Z,61
2022-12-11T07:01:41.398Z,60
2022-12-11T07:02:12.708Z,64
2022-12-11T07:02:43.711Z,64
2022-12-11T07:03:14.419Z,63
2022-12-11T07:03:45.498Z,63
2022-12-11T07:04:16.349Z,64
2022-12-11T07:04:53.351Z,63
2022-12-11T07:05:19.594Z,64
2022-12-11T07:05:50.197Z,62
2022-12-11T07:06:21.284Z,62
2022-12-11T07:06:51.482Z,62
2022-12-11T07:07:22.463Z,64
2022-12-11T07:08:11.465Z,63
2022-12-11T07:08:25.278Z,63
2022-12-11T07:08:55.404Z,63
2022-12-11T07:09:26.409Z,65
2022-12-11T07:09:58.667Z,64
2022-12-11T07:10:40.468Z,63
2022-12-11T07:11:00.466Z,63
2022-12-11T07:11:39.913Z,63
2022-12-11T07:12:11.548Z,63
2022-12-11T07:12:42.004Z,62
2022-12-11T07:13:04.292Z,62
2022-12-11T07:13:34.716Z,61
2022-12-11T07:14:05.773Z,62
2022-12-11T07:14:36.352Z,62
2022-12-11T07:15:08.912Z,62
2022-12-11T07:15:40.475Z,62
2022-12-11T07:16:11.279Z,62
2022-12-11T07:16:41.761Z,62
2022-12-11T07:17:12.179Z,62
2022-12-11T07:17:42.621Z,62
2022-12-11T07:18:14.151Z,64
2022-12-11T07:18:44.604Z,64
2022-12-11T07:19:15.780Z,56
2022-12-11T07:19:46.714Z,69
2022-12-11T07:20:18.117Z,66
2022-12-11T07:20:48.184Z,55
2022-12-11T07:21:20.669Z,51
2022-12-11T07:21:51.491Z,90
2022-12-11T07:22:22.195Z,69
2022-12-11T07:22:52.689Z,68
2022-12-11T07:23:24.224Z,67
2022-12-11T07:23:54.757Z,67
2022-12-11T07:24:25.511Z,66
2022-12-11T07:24:56.527Z,78
2022-12-11T07:25:27.823Z,66
2022-12-11T07:25:58.834Z,63
2022-12-11T07:26:30.629Z,63
2022-12-11T07:27:01.683Z,62
2022-12-11T07:27:33.108Z,62
2022-12-11T07:28:02.343Z,64
2022-12-11T07:28:33.816Z,64
2022-12-11T07:29:04.968Z,66
2022-12-11T07:29:35.572Z,65
2022-12-11T07:30:38.085Z,60
2022-12-11T07:31:09.203Z,63
2022-12-11T07:31:41.444Z,61
2022-12-11T07:32:11.992Z,61
2022-12-11T07:32:43.515Z,61
2022-12-11T07:33:13.352Z,60
2022-12-11T07:33:44.023Z,61
2022-12-11T07:34:15.184Z,61
2022-12-11T07:34:51.368Z,61
2022-12-11T07:35:17.345Z,61